Huvudsida
METAR-TAF:

METAR-TAF

Flygplatser :

Aigen im Ennstal, Österrike

latitud: 47-32N, longitud: 014-08E, höjd: 638 m

METAR: saknas

Tid: 23:37 (22:37 UTC)

Väderprognos

Denna rapport gjordes för 14 timmar och 22 minuter sedan, klockan 08:15 UTC
Prognos gäller från 15 kl. 09 UTC till 15 kl. 18 UTC
Vind 7 kt varierande vindriktning
Sikt 10 km eller mer
Få moln på en höjd av 2500 ft
Spridda moln på en höjd av 6000 ft
Brutna moln på en höjd av 20000 ft
Temporärt
från 15 kl. 09 UTC till 15 kl. 18 UTC
Vind 12 kt från nord/nordost i byarna ända upp till 25 kt
Få moln på en höjd av 2500 ft
Brutna moln på en höjd av 6000 ft
Sannolikhet 30% :
Temporärt
från 15 kl. 09 UTC till 15 kl. 18 UTC
Vind 12 kt från sydväst i byarna ända upp till 25 kt

TAF: LOXA 150815Z 1509/1518 VRB07KT 9999 FEW025 SCT060 BKN200 TEMPO 1509/1518 03012G25KT FEW025 BKN060 PROB30 TEMPO 1509/1518 23012G25KT

Aktuella väderrapporter och prognoser från 4000 flygplatser (METAR- och TAF-rapporter).

De tillgängliga stationerna syns som gula och röda prickar på kartan.

För musen över prickarna för att se namnen på stationerna.

Klicka sedan för att få väderrapporter och prognoser.

För att ändra kartan: Klicka på de gröna knapparna med ett svart kors på för att zooma in; den gröna knappen med ett streck på för att zooma ut; eller på de gröna pilarna för angränsande kartor.


METAR-TAF: